Natercia, Brazil
Current Conditions -  °F | °C
As of 6:24 PM on Friday 19 Dec 2014 (Local Time) from SBGW Reporting Station
Thunderstorm Thunderstorm  
Wind Chill: 75°   Ceiling: 900
Heat Index: 75°   Visibility: 0.75mi
Dew Point: 68°   Wind: 9mph
Humidity: 78%   Direction: 240°WSW
Pressure: 29.83"   Gusts: 25mph
Location:  22.12°S, 45.51°W
Report Text: SBGW 192024Z 24008G22KT 1200 TSRA BKN009 SCT020CB 24/20 Q1010
Loading
Personal Weather Stations






























Interactive Weather Map New forecast layout! Learn more

10-Day Weather Forecast

Advertisements
Track Severe Weather on mobile